Delta Virtual Airport Information Service

Montreal Pierre Elliott Trudeau Airport

ICAO: CYUL Country: Canada
Latitude: 45.4706 Longitude: -73.7408
Latest Arrival : WJA4863381 (CYYZ-CYUL) Latest Departure : WJA4863381 (CYUL-CYYR)


WX CaptureLIVE
Data provided by noaa.gov | Fetched at 09:39:53

METAR : CYUL 281400Z 21013KT 15SM FEW045 BKN180 BKN240 28/17 A3004 RMK CF1AC6CC1 CF TR CI ASOCTD SLP172 DENSITY ALT 1500FT

TAF : CYUL 281138Z 2812/2912 21012KT P6SM FEW070 BKN250 BECMG 2812/2814 22010G20KT FM282000 22010G20KT P6SM BKN120 FM290200 22012KT 5SM -RA BR OVC012 PROB30 2902/2906 2SM TSRA BR BKN008 OVC012CB FM290600 22012KT 6SM -RA -DZ BR BKN020 RMK NXT FCST BY 281500Z


Runway Data for CYUL
Data provided by openaviationdata.com

Runway ID Mag Var Hdg Length Elevation Surface ILS Freq ILS Id ILS Slope
06L 15 27° 11020 ft 118 ft Asphalt 109.3 IUL 3
06R 15 27° 9526 ft 118 ft Asphalt 110.5 IOA 3
24L 15 207° 9526 ft 118 ft Asphalt 110.5 IMQ 3
24R 15 207° 11020 ft 118 ft Asphalt 111.9 IZZ 3
28 15 252° 6500 ft 118 ft Asphalt -- -- --

Montreal Pierre Elliott Trudeau Airport, Canada
Use only for reference purposes



Not for navigational purposes.